createdAt,value
2018-08-04T00:00:59.866Z,45.60
2018-08-04T00:03:31.616Z,45.50
2018-08-04T00:06:09.322Z,45.70
2018-08-04T00:08:41.678Z,46.10
2018-08-04T00:14:02.315Z,46.40
2018-08-04T00:19:33.777Z,46.70
2018-08-04T00:22:17.912Z,47.20
2018-08-04T00:24:50.306Z,46.50
2018-08-04T00:27:32.335Z,46.30
2018-08-04T00:30:12.655Z,46.20
2018-08-04T00:32:53.294Z,46.30
2018-08-04T00:38:18.618Z,46.20
2018-08-04T00:41:13.338Z,46.00
2018-08-04T00:43:52.081Z,45.70
2018-08-04T00:46:36.293Z,45.30
2018-08-04T00:49:09.503Z,45.30
2018-08-04T00:54:18.134Z,45.60
2018-08-04T00:56:56.571Z,45.80
2018-08-04T00:59:36.917Z,45.90
2018-08-04T01:02:08.541Z,46.20
2018-08-04T01:04:42.737Z,46.40
2018-08-04T01:07:18.638Z,46.60
2018-08-04T01:09:51.574Z,46.70
2018-08-04T01:12:25.908Z,46.60
2018-08-04T01:15:13.950Z,46.40
2018-08-04T01:17:55.144Z,46.50
2018-08-04T01:20:28.722Z,46.30
2018-08-04T01:23:02.380Z,46.30
2018-08-04T01:25:34.847Z,46.20
2018-08-04T01:28:08.199Z,46.20
2018-08-04T01:30:45.275Z,45.70
2018-08-04T01:33:21.646Z,45.90
2018-08-04T01:35:58.578Z,45.80
2018-08-04T01:38:30.061Z,46.00
2018-08-04T01:41:02.452Z,46.60
2018-08-04T01:43:41.877Z,46.90
2018-08-04T01:46:18.784Z,46.90
2018-08-04T01:48:53.290Z,47.20
2018-08-04T01:51:26.094Z,47.90
2018-08-04T01:53:59.379Z,48.80
2018-08-04T01:56:33.089Z,49.00
2018-08-04T01:59:08.783Z,49.50
2018-08-04T02:01:44.690Z,50.00
2018-08-04T02:04:17.437Z,50.20
2018-08-04T02:06:50.237Z,50.60
2018-08-04T02:09:21.458Z,51.20
2018-08-04T02:11:56.897Z,51.90
2018-08-04T02:14:36.982Z,52.50
2018-08-04T02:17:08.827Z,52.80
2018-08-04T02:19:45.524Z,52.80
2018-08-04T02:22:19.398Z,53.00
2018-08-04T02:24:59.778Z,52.90
2018-08-04T02:27:36.714Z,53.30
2018-08-04T02:30:19.087Z,53.40
2018-08-04T02:33:01.474Z,53.60
2018-08-04T02:35:37.544Z,54.40
2018-08-04T02:38:14.247Z,54.40
2018-08-04T02:40:53.352Z,54.40
2018-08-04T02:43:32.718Z,54.40
2018-08-04T02:46:13.969Z,54.70
2018-08-04T02:48:46.296Z,55.20
2018-08-04T02:51:29.317Z,55.50
2018-08-04T02:54:10.100Z,55.90
2018-08-04T02:56:48.577Z,56.00
2018-08-04T03:02:28.469Z,56.40
2018-08-04T03:05:07.514Z,55.20
2018-08-04T03:07:59.379Z,55.10
2018-08-04T03:10:36.321Z,54.50
2018-08-04T03:13:11.290Z,54.60
2018-08-04T03:15:46.125Z,55.00
2018-08-04T03:18:22.024Z,55.60
2018-08-04T03:21:00.782Z,54.70
2018-08-04T03:23:37.195Z,54.90
2018-08-04T03:26:13.299Z,55.10
2018-08-04T03:31:28.189Z,55.70
2018-08-04T03:34:25.308Z,55.80
2018-08-04T03:36:59.965Z,56.00
2018-08-04T03:39:38.318Z,56.00
2018-08-04T03:44:56.966Z,55.90
2018-08-04T03:47:31.002Z,55.70
2018-08-04T03:50:04.990Z,55.60
2018-08-04T03:55:53.770Z,55.40
2018-08-04T03:58:31.297Z,55.60
2018-08-04T04:01:15.964Z,55.90
2018-08-04T04:03:49.805Z,56.20
2018-08-04T04:06:25.372Z,56.40
2018-08-04T04:09:02.649Z,56.30
2018-08-04T04:11:33.435Z,56.10
2018-08-04T04:14:09.140Z,56.10
2018-08-04T04:19:34.162Z,56.10
2018-08-04T04:22:09.218Z,55.80
2018-08-04T04:24:41.912Z,55.60
2018-08-04T04:27:13.930Z,55.50
2018-08-04T04:29:55.564Z,55.40
2018-08-04T04:32:28.796Z,55.70
2018-08-04T04:35:03.709Z,55.50
2018-08-04T04:37:46.600Z,55.20
2018-08-04T04:40:27.450Z,54.90
2018-08-04T04:43:07.825Z,54.30
2018-08-04T04:45:41.843Z,54.30
2018-08-04T04:48:35.370Z,53.20
2018-08-04T04:51:25.745Z,53.20
2018-08-04T04:54:08.262Z,52.40
2018-08-04T04:56:44.207Z,52.00
2018-08-04T04:59:35.738Z,51.90
2018-08-04T05:11:37.343Z,51.50
2018-08-04T05:14:28.164Z,51.50
2018-08-04T05:17:12.642Z,51.80
2018-08-04T05:20:04.168Z,51.90
2018-08-04T05:22:38.770Z,52.00
2018-08-04T05:25:10.297Z,51.50
2018-08-04T05:27:55.374Z,51.20
2018-08-04T05:30:28.068Z,51.20
2018-08-04T05:33:20.610Z,51.60
2018-08-04T05:39:02.788Z,49.70
2018-08-04T05:41:57.528Z,48.00
2018-08-04T05:45:16.398Z,46.50
2018-08-04T05:48:16.345Z,45.90
2018-08-04T05:59:25.343Z,41.20
2018-08-04T06:05:24.006Z,40.90
2018-08-04T06:11:04.442Z,40.00
2018-08-04T06:14:07.412Z,39.80
2018-08-04T06:19:39.291Z,38.00
2018-08-04T06:22:14.592Z,37.90
2018-08-04T06:30:33.651Z,35.20
2018-08-04T06:33:11.266Z,34.60
2018-08-04T06:41:58.814Z,35.30
2018-08-04T06:54:22.289Z,34.10
2018-08-04T07:02:37.748Z,31.90
2018-08-04T07:08:11.162Z,29.30
2018-08-04T07:11:03.341Z,28.90
2018-08-04T07:14:09.357Z,28.10
2018-08-04T07:19:39.232Z,27.30
2018-08-04T07:22:15.508Z,27.40
2018-08-04T07:27:30.855Z,27.60
2018-08-04T07:30:09.782Z,28.20
2018-08-04T07:32:49.828Z,28.30
2018-08-04T07:38:32.038Z,28.60
2018-08-04T07:42:26.238Z,27.60
2018-08-04T07:44:57.055Z,27.10
2018-08-04T07:47:25.812Z,26.10
2018-08-04T07:49:59.453Z,25.60
2018-08-04T07:52:28.605Z,26.90
2018-08-04T07:54:57.489Z,26.50
2018-08-04T07:57:27.313Z,26.50
2018-08-04T07:59:58.289Z,26.60
2018-08-04T08:02:28.315Z,25.20
2018-08-04T08:04:57.831Z,25.20
2018-08-04T08:07:30.602Z,25.30
2018-08-04T08:12:55.029Z,24.30
2018-08-04T08:18:38.339Z,23.80
2018-08-04T08:27:08.090Z,22.50
2018-08-04T08:40:23.565Z,21.30
2018-08-04T08:43:09.104Z,21.30
2018-08-04T08:45:57.676Z,21.40
2018-08-04T08:48:39.871Z,21.00
2018-08-04T08:56:35.317Z,21.10
2018-08-04T08:59:26.534Z,20.80
2018-08-04T09:02:04.235Z,20.00
2018-08-04T09:04:59.269Z,19.00
2018-08-04T09:08:14.847Z,19.10
2018-08-04T09:11:04.786Z,19.40
2018-08-04T09:14:02.764Z,20.20
2018-08-04T09:16:51.132Z,19.00
2018-08-04T09:23:10.330Z,17.60
2018-08-04T09:25:45.781Z,18.00
2018-08-04T09:31:49.084Z,19.40
2018-08-04T09:34:48.885Z,19.40
2018-08-04T09:37:41.052Z,18.10
2018-08-04T09:40:23.239Z,17.00
2018-08-04T09:43:06.438Z,16.40
2018-08-04T09:45:50.592Z,15.60
2018-08-04T09:51:19.960Z,16.50
2018-08-04T09:54:02.775Z,16.30
2018-08-04T09:56:33.660Z,16.30
2018-08-04T10:04:44.769Z,15.50
2018-08-04T10:07:33.730Z,15.40
2018-08-04T10:10:14.835Z,16.30
2018-08-04T10:12:55.095Z,17.80
2018-08-04T10:15:53.200Z,19.10
2018-08-04T10:21:34.966Z,20.80
2018-08-04T10:24:08.678Z,20.50
2018-08-04T10:26:39.118Z,20.60
2018-08-04T10:33:45.947Z,20.70
2018-08-04T10:36:25.587Z,20.30
2018-08-04T10:39:17.961Z,21.10
2018-08-04T10:42:11.126Z,20.20
2018-08-04T10:44:53.701Z,20.60
2018-08-04T10:47:54.443Z,21.00
2018-08-04T10:50:34.524Z,21.10
2018-08-04T10:53:24.403Z,21.00
2018-08-04T10:56:01.759Z,21.00
2018-08-04T10:58:36.627Z,20.30
2018-08-04T11:01:17.489Z,20.20
2018-08-04T11:03:55.311Z,20.10
2018-08-04T11:06:29.842Z,20.50
2018-08-04T11:09:07.878Z,20.20
2018-08-04T11:11:41.557Z,20.30
2018-08-04T11:14:19.136Z,20.50
2018-08-04T11:19:26.267Z,21.70
2018-08-04T11:22:01.413Z,21.70
2018-08-04T11:24:33.846Z,21.70
2018-08-04T11:27:10.007Z,21.70
2018-08-04T11:29:40.371Z,21.40
2018-08-04T11:32:25.850Z,21.20
2018-08-04T11:37:46.529Z,21.00
2018-08-04T11:40:37.581Z,21.20
2018-08-04T11:46:11.121Z,20.20
2018-08-04T11:51:26.930Z,18.70
2018-08-04T11:53:58.095Z,19.70
2018-08-04T11:56:29.415Z,20.20
2018-08-04T11:59:01.050Z,20.50
2018-08-04T12:01:40.484Z,20.20
2018-08-04T12:04:21.157Z,19.60
2018-08-04T12:06:59.242Z,19.20
2018-08-04T12:09:34.585Z,19.10
2018-08-04T12:12:12.001Z,18.70
2018-08-04T12:14:50.078Z,18.80
2018-08-04T12:17:34.129Z,18.80
2018-08-04T12:22:55.635Z,19.20
2018-08-04T12:25:38.395Z,19.10
2018-08-04T12:31:04.159Z,19.30
2018-08-04T12:37:04.066Z,19.40
2018-08-04T12:39:35.898Z,18.90
2018-08-04T12:42:12.960Z,19.00
2018-08-04T12:44:51.396Z,18.00
2018-08-04T12:47:36.066Z,17.30
2018-08-04T12:50:14.049Z,17.60
2018-08-04T12:55:31.188Z,17.50
2018-08-04T12:58:04.512Z,17.80
2018-08-04T13:00:36.989Z,18.10
2018-08-04T13:06:00.742Z,21.90
2018-08-04T13:08:34.445Z,21.50
2018-08-04T13:11:13.467Z,21.40
2018-08-04T13:16:53.775Z,22.60
2018-08-04T13:19:43.742Z,22.70
2018-08-04T13:22:33.081Z,23.00
2018-08-04T13:25:05.929Z,22.60
2018-08-04T13:27:44.931Z,23.00
2018-08-04T13:30:24.513Z,22.90
2018-08-04T13:48:01.610Z,20.80
2018-08-04T13:50:32.645Z,20.90
2018-08-04T13:53:32.354Z,20.80
2018-08-04T13:56:07.718Z,20.70
2018-08-04T13:58:46.554Z,20.20
2018-08-04T14:04:53.935Z,20.70
2018-08-04T14:07:58.688Z,20.90
2018-08-04T14:26:19.137Z,22.60
2018-08-04T14:32:06.802Z,22.40
2018-08-04T14:34:54.018Z,22.50
2018-08-04T14:37:32.590Z,22.00
2018-08-04T14:40:14.227Z,22.10
2018-08-04T14:42:53.364Z,21.80
2018-08-04T14:45:40.601Z,21.60
2018-08-04T14:48:26.217Z,21.70
2018-08-04T14:51:15.005Z,21.60
2018-08-04T14:53:51.020Z,21.50
2018-08-04T14:56:33.625Z,21.80
2018-08-04T14:59:27.158Z,21.90
2018-08-04T15:02:10.341Z,22.10
2018-08-04T15:04:53.041Z,22.40
2018-08-04T15:07:30.392Z,22.20
2018-08-04T15:10:23.164Z,22.40
2018-08-04T15:13:11.767Z,22.00
2018-08-04T15:16:12.789Z,21.70
2018-08-04T15:19:01.261Z,21.60
2018-08-04T15:21:50.345Z,21.60
2018-08-04T15:24:34.783Z,21.80
2018-08-04T15:30:11.128Z,22.00
2018-08-04T15:52:13.252Z,21.10
2018-08-04T15:57:26.337Z,21.40
2018-08-04T16:00:10.785Z,21.40
2018-08-04T16:02:41.960Z,21.50
2018-08-04T16:07:55.872Z,21.90
2018-08-04T16:10:38.523Z,21.80
2018-08-04T16:13:09.710Z,21.60
2018-08-04T16:15:42.908Z,21.70
2018-08-04T16:21:06.306Z,21.50
2018-08-04T16:23:51.784Z,21.80
2018-08-04T16:26:31.323Z,21.40
2018-08-04T16:32:23.160Z,21.60
2018-08-04T16:35:05.554Z,21.40
2018-08-04T16:37:41.413Z,21.10
2018-08-04T16:43:09.339Z,21.40
2018-08-04T16:48:27.472Z,21.00
2018-08-04T16:54:16.967Z,21.80
2018-08-04T16:57:04.405Z,22.40
2018-08-04T17:06:52.116Z,24.10
2018-08-04T17:13:02.137Z,24.80
2018-08-04T17:20:41.603Z,25.20
2018-08-04T17:23:33.962Z,25.50
2018-08-04T17:26:17.627Z,25.50
2018-08-04T17:29:06.235Z,26.20
2018-08-04T17:31:53.637Z,25.70
2018-08-04T17:34:46.825Z,25.80
2018-08-04T17:37:32.612Z,25.90
2018-08-04T17:40:16.108Z,26.00
2018-08-04T17:43:05.310Z,26.10
2018-08-04T17:45:51.539Z,26.30
2018-08-04T17:48:44.668Z,26.20
2018-08-04T17:51:34.620Z,26.40
2018-08-04T17:54:17.067Z,26.50
2018-08-04T17:59:46.036Z,26.90
2018-08-04T18:02:28.928Z,26.90
2018-08-04T18:05:15.248Z,27.10
2018-08-04T18:08:17.261Z,27.20
2018-08-04T18:16:30.680Z,27.20
2018-08-04T18:22:05.224Z,27.40
2018-08-04T18:24:57.600Z,27.40
2018-08-04T18:30:45.460Z,27.50
2018-08-04T18:33:26.251Z,27.90
2018-08-04T18:36:08.326Z,27.80
2018-08-04T18:38:55.518Z,28.10
2018-08-04T18:44:29.351Z,28.40
2018-08-04T18:47:10.468Z,28.50
2018-08-04T18:52:56.864Z,28.70
2018-08-04T19:08:03.885Z,29.20
2018-08-04T19:10:42.513Z,29.30
2018-08-04T19:13:48.986Z,29.40
2018-08-04T19:19:49.219Z,29.80
2018-08-04T19:22:42.191Z,29.70
2018-08-04T19:25:30.678Z,29.80
2018-08-04T19:28:05.140Z,29.90
2018-08-04T19:36:38.094Z,30.50
2018-08-04T19:42:02.882Z,30.90
2018-08-04T19:44:45.083Z,31.00
2018-08-04T19:47:28.615Z,31.40
2018-08-04T19:50:09.800Z,31.60
2018-08-04T19:52:53.429Z,31.60
2018-08-04T19:55:33.894Z,31.90
2018-08-04T19:58:11.282Z,31.50
2018-08-04T20:01:22.765Z,31.60
2018-08-04T20:07:44.316Z,32.50
2018-08-04T20:10:36.181Z,32.40
2018-08-04T20:13:16.131Z,32.80
2018-08-04T20:21:53.210Z,34.00
2018-08-04T20:27:24.158Z,34.80
2018-08-04T20:33:34.920Z,35.20
2018-08-04T20:36:21.168Z,35.50
2018-08-04T20:41:48.566Z,36.10
2018-08-04T20:44:27.988Z,36.30
2018-08-04T20:47:05.471Z,36.50
2018-08-04T20:59:46.767Z,37.00
2018-08-04T21:05:55.858Z,37.50
2018-08-04T21:17:07.012Z,38.30
2018-08-04T21:36:03.127Z,40.10
2018-08-04T21:38:43.992Z,40.70
2018-08-04T21:53:25.709Z,40.80
2018-08-04T21:56:06.885Z,41.00
2018-08-04T21:58:56.030Z,40.60
2018-08-04T22:04:25.518Z,40.90
2018-08-04T22:08:14.713Z,40.90
2018-08-04T22:11:23.229Z,41.30
2018-08-04T22:17:04.357Z,41.70
2018-08-04T22:19:51.599Z,41.70
2018-08-04T22:32:45.622Z,42.10
2018-08-04T22:50:42.136Z,41.40
2018-08-04T22:58:39.285Z,41.50
2018-08-04T23:07:02.635Z,41.70
2018-08-04T23:09:45.436Z,41.70
2018-08-04T23:12:24.243Z,41.70
2018-08-04T23:15:06.171Z,41.60
2018-08-04T23:20:40.197Z,41.90
2018-08-04T23:23:21.540Z,42.10
2018-08-04T23:26:26.481Z,42.00
2018-08-04T23:32:03.987Z,42.70
2018-08-04T23:37:53.890Z,43.60
2018-08-04T23:40:57.388Z,43.50
2018-08-04T23:53:50.738Z,44.70
